createdAt,value
2018-12-03T00:00:50.376Z,9.85
2018-12-03T00:02:50.468Z,9.83
2018-12-03T00:04:49.874Z,9.83
2018-12-03T00:06:50.325Z,9.80
2018-12-03T00:08:50.427Z,9.80
2018-12-03T00:10:50.525Z,9.80
2018-12-03T00:12:50.525Z,9.79
2018-12-03T00:14:49.720Z,9.79
2018-12-03T00:16:50.220Z,9.78
2018-12-03T00:18:50.291Z,9.77
2018-12-03T00:20:50.308Z,9.76
2018-12-03T00:22:50.380Z,9.74
2018-12-03T00:24:50.460Z,9.73
2018-12-03T00:26:49.902Z,9.75
2018-12-03T00:28:50.096Z,9.75
2018-12-03T00:30:50.147Z,9.73
2018-12-03T00:32:50.227Z,9.72
2018-12-03T00:34:49.760Z,9.72
2018-12-03T00:36:50.256Z,9.73
2018-12-03T00:38:50.258Z,9.73
2018-12-03T00:40:50.284Z,9.72
2018-12-03T00:42:50.329Z,9.70
2018-12-03T00:44:50.649Z,9.70
2018-12-03T00:46:49.969Z,9.70
2018-12-03T00:48:50.072Z,9.72
2018-12-03T00:50:50.164Z,9.74
2018-12-03T00:52:50.157Z,9.75
2018-12-03T00:54:50.285Z,9.78
2018-12-03T00:56:50.459Z,9.80
2018-12-03T00:58:50.521Z,9.78
2018-12-03T01:00:50.532Z,9.80
2018-12-03T01:02:50.605Z,9.82
2018-12-03T01:04:50.075Z,9.85
2018-12-03T01:06:50.265Z,9.88
2018-12-03T01:08:50.386Z,9.90
2018-12-03T01:10:50.547Z,9.94
2018-12-03T01:12:49.822Z,9.99
2018-12-03T01:14:50.145Z,10.01
2018-12-03T01:16:50.502Z,10.09
2018-12-03T01:18:50.599Z,10.13
2018-12-03T01:20:49.714Z,10.17
2018-12-03T01:22:49.941Z,10.19
2018-12-03T01:24:49.946Z,10.24
2018-12-03T01:26:50.243Z,10.27
2018-12-03T01:28:50.337Z,10.29
2018-12-03T01:30:50.405Z,10.31
2018-12-03T01:32:50.586Z,10.34
2018-12-03T01:34:50.316Z,10.33
2018-12-03T01:36:50.525Z,10.32
2018-12-03T01:38:50.500Z,10.30
2018-12-03T01:40:49.741Z,10.31
2018-12-03T01:42:49.926Z,10.34
2018-12-03T01:44:49.980Z,10.35
2018-12-03T01:46:50.300Z,10.34
2018-12-03T01:48:50.363Z,10.33
2018-12-03T01:50:50.504Z,10.33
2018-12-03T01:52:50.578Z,10.32
2018-12-03T01:54:49.714Z,10.31
2018-12-03T01:56:50.138Z,10.31
2018-12-03T01:58:50.351Z,10.31
2018-12-03T02:00:50.428Z,10.32
2018-12-03T02:02:50.484Z,10.32
2018-12-03T02:04:50.248Z,10.31
2018-12-03T02:06:49.708Z,10.30
2018-12-03T02:08:49.926Z,10.30
2018-12-03T02:10:49.996Z,10.27
2018-12-03T02:12:50.399Z,10.26
2018-12-03T02:14:50.446Z,10.26
2018-12-03T02:16:49.838Z,10.27
2018-12-03T02:18:50.052Z,10.28
2018-12-03T02:20:50.171Z,10.27
2018-12-03T02:22:50.402Z,10.27
2018-12-03T02:24:50.621Z,10.27
2018-12-03T02:26:50.205Z,10.28
2018-12-03T02:28:50.380Z,10.28
2018-12-03T02:30:50.530Z,10.27
2018-12-03T02:32:49.933Z,10.27
2018-12-03T02:34:50.387Z,10.25
2018-12-03T02:36:50.469Z,10.26
2018-12-03T02:38:50.585Z,10.28
2018-12-03T02:40:49.710Z,10.30
2018-12-03T02:42:49.804Z,10.30
2018-12-03T02:44:49.820Z,10.31
2018-12-03T02:46:50.429Z,10.32
2018-12-03T02:48:50.444Z,10.32
2018-12-03T02:50:50.535Z,10.33
2018-12-03T02:52:50.562Z,10.33
2018-12-03T02:54:49.808Z,10.33
2018-12-03T02:56:50.309Z,10.33
2018-12-03T02:58:50.320Z,10.33
2018-12-03T03:00:50.521Z,10.32
2018-12-03T03:02:50.610Z,10.32
2018-12-03T03:04:50.236Z,10.29
2018-12-03T03:06:50.670Z,10.28
2018-12-03T03:08:49.872Z,10.27
2018-12-03T03:10:50.009Z,10.24
2018-12-03T03:12:50.233Z,10.27
2018-12-03T03:14:50.314Z,10.28
2018-12-03T03:16:50.557Z,10.27
2018-12-03T03:18:49.810Z,10.27
2018-12-03T03:20:49.985Z,10.28
2018-12-03T03:22:50.021Z,10.28
2018-12-03T03:24:50.201Z,10.29
2018-12-03T03:26:50.447Z,10.30
2018-12-03T03:28:50.610Z,10.30
2018-12-03T03:30:50.663Z,10.28
2018-12-03T03:32:49.856Z,10.25
2018-12-03T03:34:50.552Z,10.21
2018-12-03T03:36:49.838Z,10.21
2018-12-03T03:38:49.981Z,10.21
2018-12-03T03:40:50.121Z,10.20
2018-12-03T03:42:50.221Z,10.16
2018-12-03T03:44:50.529Z,10.14
2018-12-03T03:46:50.022Z,10.12
2018-12-03T03:48:50.085Z,10.11
2018-12-03T03:50:50.192Z,10.11
2018-12-03T03:52:50.258Z,10.07
2018-12-03T03:54:50.298Z,10.00
2018-12-03T03:56:50.570Z,10.00
2018-12-03T03:58:50.659Z,10.00
2018-12-03T04:00:49.843Z,10.00
2018-12-03T04:02:50.011Z,10.00
2018-12-03T04:04:50.312Z,10.03
2018-12-03T04:06:50.573Z,10.03
2018-12-03T04:08:49.748Z,10.02
2018-12-03T04:10:49.880Z,10.02
2018-12-03T04:12:50.140Z,10.04
2018-12-03T04:14:50.251Z,10.05
2018-12-03T04:16:50.621Z,10.05
2018-12-03T04:18:49.826Z,10.05
2018-12-03T04:20:50.194Z,10.04
2018-12-03T04:22:50.304Z,10.03
2018-12-03T04:24:50.360Z,10.02
2018-12-03T04:26:49.721Z,10.02
2018-12-03T04:28:49.876Z,10.03
2018-12-03T04:30:50.026Z,10.03
2018-12-03T04:32:50.171Z,10.02
2018-12-03T04:34:50.637Z,10.03
2018-12-03T04:36:49.996Z,10.02
2018-12-03T04:38:50.171Z,10.02
2018-12-03T04:40:50.283Z,10.04
2018-12-03T04:42:50.356Z,10.07
2018-12-03T04:44:50.379Z,10.07
2018-12-03T04:46:49.796Z,10.06
2018-12-03T04:48:50.009Z,10.06
2018-12-03T04:50:50.157Z,10.06
2018-12-03T04:52:50.297Z,10.06
2018-12-03T04:54:50.424Z,10.07
2018-12-03T04:56:49.931Z,10.06
2018-12-03T04:58:49.999Z,10.08
2018-12-03T05:00:50.174Z,10.07
2018-12-03T05:02:50.150Z,10.04
2018-12-03T05:04:50.489Z,10.04
2018-12-03T05:06:50.110Z,10.03
2018-12-03T05:08:49.697Z,10.01
2018-12-03T05:10:49.817Z,9.99
2018-12-03T05:12:50.025Z,9.98
2018-12-03T05:14:50.115Z,9.97
2018-12-03T05:16:50.344Z,9.99
2018-12-03T05:18:50.419Z,10.05
2018-12-03T05:20:50.536Z,10.07
2018-12-03T05:22:50.703Z,10.09
2018-12-03T05:24:49.917Z,10.10
2018-12-03T05:26:50.026Z,10.10
2018-12-03T05:28:50.261Z,10.12
2018-12-03T05:30:50.370Z,10.14
2018-12-03T05:32:50.558Z,10.15
2018-12-03T05:34:49.863Z,10.16
2018-12-03T05:36:50.373Z,10.16
2018-12-03T05:38:50.665Z,10.15
2018-12-03T05:40:49.714Z,10.14
2018-12-03T05:42:49.720Z,10.13
2018-12-03T05:44:49.960Z,10.12
2018-12-03T05:46:50.253Z,10.12
2018-12-03T05:48:50.370Z,10.14
2018-12-03T05:50:50.477Z,10.14
2018-12-03T05:52:50.611Z,10.14
2018-12-03T05:54:50.597Z,10.16
2018-12-03T05:56:50.187Z,10.16
2018-12-03T05:58:50.224Z,10.20
2018-12-03T06:00:50.328Z,10.23
2018-12-03T06:02:50.441Z,10.22
2018-12-03T06:04:49.972Z,10.23
2018-12-03T06:06:50.258Z,10.24
2018-12-03T06:08:50.329Z,10.26
2018-12-03T06:10:50.533Z,10.26
2018-12-03T06:12:50.661Z,10.29
2018-12-03T06:14:49.692Z,10.31
2018-12-03T06:16:50.106Z,10.33
2018-12-03T06:18:50.224Z,10.33
2018-12-03T06:20:50.346Z,10.34
2018-12-03T06:22:50.426Z,10.36
2018-12-03T06:24:50.581Z,10.35
2018-12-03T06:26:49.953Z,10.33
2018-12-03T06:28:50.186Z,10.34
2018-12-03T06:30:50.281Z,10.37
2018-12-03T06:32:50.350Z,10.39
2018-12-03T06:34:49.870Z,10.39
2018-12-03T06:36:50.611Z,10.42
2018-12-03T06:38:49.729Z,10.45
2018-12-03T06:40:49.887Z,10.47
2018-12-03T06:42:50.101Z,10.47
2018-12-03T06:44:50.231Z,10.47
2018-12-03T06:46:50.434Z,10.48
2018-12-03T06:48:50.491Z,10.48
2018-12-03T06:50:50.664Z,10.48
2018-12-03T06:52:49.807Z,10.47
2018-12-03T06:54:49.864Z,10.46
2018-12-03T06:56:50.370Z,10.44
2018-12-03T06:58:50.407Z,10.45
2018-12-03T07:00:50.450Z,10.46
2018-12-03T07:02:50.620Z,10.46
2018-12-03T07:04:50.268Z,10.45
2018-12-03T07:06:50.559Z,10.47
2018-12-03T07:08:49.708Z,10.50
2018-12-03T07:10:49.806Z,10.53
2018-12-03T07:12:49.917Z,10.64
2018-12-03T07:14:50.040Z,10.68
2018-12-03T07:16:50.259Z,10.69
2018-12-03T07:18:50.315Z,10.67
2018-12-03T07:20:50.393Z,10.66
2018-12-03T07:22:50.542Z,10.65
2018-12-03T07:24:50.659Z,10.61
2018-12-03T07:26:50.021Z,10.59
2018-12-03T07:28:50.138Z,10.54
2018-12-03T07:30:50.375Z,10.52
2018-12-03T07:32:50.623Z,10.48
2018-12-03T07:34:50.193Z,10.48
2018-12-03T07:36:50.535Z,10.47
2018-12-03T07:38:50.518Z,10.46
2018-12-03T07:40:50.671Z,10.45
2018-12-03T07:42:49.745Z,10.45
2018-12-03T07:44:49.878Z,10.44
2018-12-03T07:46:50.391Z,10.44
2018-12-03T07:48:50.421Z,10.44
2018-12-03T07:50:49.730Z,10.48
2018-12-03T07:52:49.997Z,10.47
2018-12-03T07:54:49.953Z,10.44
2018-12-03T07:56:50.119Z,10.43
2018-12-03T07:58:50.258Z,10.48
2018-12-03T08:00:50.403Z,10.49
2018-12-03T08:02:50.472Z,10.48
2018-12-03T08:04:49.991Z,10.47
2018-12-03T08:06:50.337Z,10.47
2018-12-03T08:08:50.410Z,10.44
2018-12-03T08:10:50.485Z,10.43
2018-12-03T08:12:50.546Z,10.43
2018-12-03T08:14:49.684Z,10.40
2018-12-03T08:16:49.901Z,10.38
2018-12-03T08:18:50.025Z,10.36
2018-12-03T08:20:50.184Z,10.37
2018-12-03T08:22:50.482Z,10.38
2018-12-03T08:24:50.680Z,10.37
2018-12-03T08:26:49.980Z,10.34
2018-12-03T08:28:50.055Z,10.34
2018-12-03T08:30:50.139Z,10.33
2018-12-03T08:32:50.221Z,10.33
2018-12-03T08:34:50.709Z,10.36
2018-12-03T08:36:50.160Z,10.36
2018-12-03T08:38:50.227Z,10.42
2018-12-03T08:40:50.280Z,10.42
2018-12-03T08:42:50.384Z,10.46
2018-12-03T08:44:50.431Z,10.51
2018-12-03T08:46:49.677Z,10.57
2018-12-03T08:48:49.957Z,10.60
2018-12-03T08:50:49.878Z,10.63
2018-12-03T08:52:50.185Z,10.63
2018-12-03T08:54:50.256Z,10.63
2018-12-03T08:56:50.596Z,10.58
2018-12-03T08:58:49.722Z,10.57
2018-12-03T09:00:49.774Z,10.54
2018-12-03T09:02:49.916Z,10.52
2018-12-03T09:04:50.263Z,10.47
2018-12-03T09:06:49.797Z,10.46
2018-12-03T09:08:49.865Z,10.40
2018-12-03T09:10:50.091Z,10.35
2018-12-03T09:12:50.159Z,10.33
2018-12-03T09:14:50.184Z,10.27
2018-12-03T09:16:50.534Z,10.24
2018-12-03T09:18:50.675Z,10.21
2018-12-03T09:20:50.009Z,10.20
2018-12-03T09:22:50.206Z,10.21
2018-12-03T09:24:50.265Z,10.22
2018-12-03T09:26:49.708Z,10.25
2018-12-03T09:28:49.806Z,10.27
2018-12-03T09:30:49.982Z,10.31
2018-12-03T09:32:50.028Z,10.38
2018-12-03T09:34:50.444Z,10.39
2018-12-03T09:36:49.847Z,10.38
2018-12-03T09:38:50.160Z,10.37
2018-12-03T09:40:50.279Z,10.36
2018-12-03T09:42:50.418Z,10.38
2018-12-03T09:44:50.547Z,10.43
2018-12-03T09:46:49.980Z,10.46
2018-12-03T09:48:50.133Z,10.51
2018-12-03T09:50:50.211Z,10.58
2018-12-03T09:52:50.366Z,10.64
2018-12-03T09:54:50.465Z,10.77
2018-12-03T09:56:49.989Z,10.88
2018-12-03T09:58:50.359Z,11.04
2018-12-03T10:00:50.564Z,11.20
2018-12-03T10:02:50.773Z,11.40
2018-12-03T10:04:50.237Z,11.49
2018-12-03T10:06:50.560Z,11.52
2018-12-03T10:08:50.676Z,11.45
2018-12-03T10:10:50.658Z,11.45
2018-12-03T10:12:49.671Z,11.33
2018-12-03T10:14:49.900Z,11.32
2018-12-03T10:16:50.162Z,11.34
2018-12-03T10:18:50.108Z,11.39
2018-12-03T10:20:50.220Z,11.46
2018-12-03T10:22:50.295Z,11.67
2018-12-03T10:24:50.420Z,11.79
2018-12-03T10:26:50.524Z,11.80
2018-12-03T10:28:50.492Z,11.80
2018-12-03T10:30:50.618Z,11.62
2018-12-03T10:32:49.992Z,11.49
2018-12-03T10:34:50.508Z,11.41
2018-12-03T10:36:49.872Z,11.35
2018-12-03T10:38:50.378Z,11.31
2018-12-03T10:40:50.445Z,11.27
2018-12-03T10:42:50.439Z,11.26
2018-12-03T10:44:50.572Z,11.23
2018-12-03T10:46:49.918Z,11.23
2018-12-03T10:48:49.907Z,11.21
2018-12-03T10:50:50.013Z,11.17
2018-12-03T10:52:50.268Z,11.15
2018-12-03T10:54:50.474Z,11.14
2018-12-03T10:56:49.729Z,11.12
2018-12-03T10:58:49.717Z,11.12
2018-12-03T11:00:49.923Z,11.11
2018-12-03T11:02:49.983Z,11.09
2018-12-03T11:04:49.847Z,11.09
2018-12-03T11:06:50.147Z,11.08
2018-12-03T11:08:50.229Z,11.08
2018-12-03T11:10:50.297Z,11.06
2018-12-03T11:12:50.520Z,11.06
2018-12-03T11:14:50.635Z,11.06
2018-12-03T11:16:49.991Z,11.06
2018-12-03T11:18:50.079Z,11.06
2018-12-03T11:20:50.191Z,11.06
2018-12-03T11:22:50.310Z,11.09
2018-12-03T11:24:50.342Z,11.11
2018-12-03T11:26:49.701Z,11.12
2018-12-03T11:28:49.834Z,11.15
2018-12-03T11:30:50.071Z,11.16
2018-12-03T11:32:50.085Z,11.19
2018-12-03T11:34:50.505Z,11.22
2018-12-03T11:36:49.710Z,11.28
2018-12-03T11:38:49.867Z,11.34
2018-12-03T11:40:50.144Z,11.37
2018-12-03T11:42:50.408Z,11.40
2018-12-03T11:44:50.494Z,11.40
2018-12-03T11:46:49.800Z,11.40
2018-12-03T11:48:50.051Z,11.41
2018-12-03T11:50:50.051Z,11.41
2018-12-03T11:52:50.142Z,11.39
2018-12-03T11:54:50.146Z,11.37
2018-12-03T11:56:50.456Z,11.36
2018-12-03T11:58:50.587Z,11.35
2018-12-03T12:00:50.677Z,11.34
2018-12-03T12:02:50.683Z,11.32
2018-12-03T12:04:50.280Z,11.31
2018-12-03T12:06:50.538Z,11.29
2018-12-03T12:08:50.627Z,11.29
2018-12-03T12:10:49.768Z,11.30
2018-12-03T12:12:49.922Z,11.32
2018-12-03T12:14:50.056Z,11.34
2018-12-03T12:16:50.424Z,11.37
2018-12-03T12:18:50.424Z,11.40
2018-12-03T12:20:50.631Z,11.43
2018-12-03T12:22:49.779Z,11.44
2018-12-03T12:24:49.935Z,11.44
2018-12-03T12:26:50.284Z,11.44
2018-12-03T12:28:50.427Z,11.44
2018-12-03T12:30:50.546Z,11.43
2018-12-03T12:32:50.683Z,11.35
2018-12-03T12:34:50.123Z,11.31
2018-12-03T12:36:50.357Z,11.21
2018-12-03T12:38:50.461Z,11.19
2018-12-03T12:40:50.541Z,11.17
2018-12-03T12:42:50.549Z,11.16
2018-12-03T12:44:50.679Z,11.15
2018-12-03T12:46:49.901Z,11.14
2018-12-03T12:48:50.179Z,11.14
2018-12-03T12:50:50.320Z,11.18
2018-12-03T12:52:50.530Z,11.23
2018-12-03T12:54:49.923Z,11.24
2018-12-03T12:56:50.331Z,11.25
2018-12-03T12:58:50.305Z,11.26
2018-12-03T13:00:50.268Z,11.31
2018-12-03T13:02:50.278Z,11.32
2018-12-03T13:04:50.656Z,11.35
2018-12-03T13:06:50.256Z,11.36
2018-12-03T13:08:49.805Z,11.33
2018-12-03T13:10:49.911Z,11.26
2018-12-03T13:12:49.870Z,11.22
2018-12-03T13:14:49.994Z,11.19
2018-12-03T13:16:50.074Z,11.21
2018-12-03T13:18:50.118Z,11.17
2018-12-03T13:20:50.048Z,11.17
2018-12-03T13:22:50.057Z,11.05
2018-12-03T13:24:50.044Z,10.99
2018-12-03T13:26:50.191Z,10.96
2018-12-03T13:28:50.233Z,10.90
2018-12-03T13:30:50.214Z,10.82
2018-12-03T13:32:50.131Z,10.81
2018-12-03T13:34:50.321Z,10.76
2018-12-03T13:36:50.357Z,10.73
2018-12-03T13:38:50.366Z,10.65
2018-12-03T13:40:50.376Z,10.59
2018-12-03T13:42:50.379Z,10.57
2018-12-03T13:44:50.295Z,10.56
2018-12-03T13:46:50.422Z,10.49
2018-12-03T13:48:50.434Z,10.48
2018-12-03T13:50:50.458Z,10.49
2018-12-03T13:52:50.482Z,10.51
2018-12-03T13:54:50.382Z,10.49
2018-12-03T13:56:50.505Z,10.44
2018-12-03T13:58:50.529Z,10.38
2018-12-03T14:00:50.462Z,10.35
2018-12-03T14:02:50.426Z,10.29
2018-12-03T14:04:49.913Z,10.25
2018-12-03T14:06:50.036Z,10.19
2018-12-03T14:08:50.022Z,10.16
2018-12-03T14:10:49.971Z,10.08
2018-12-03T14:12:49.954Z,10.08
2018-12-03T14:14:49.873Z,10.00
2018-12-03T14:16:50.502Z,9.95
2018-12-03T14:18:50.589Z,9.92
2018-12-03T14:20:50.496Z,9.89
2018-12-03T14:22:50.517Z,9.87
2018-12-03T14:24:50.418Z,9.83
2018-12-03T14:26:50.461Z,9.81
2018-12-03T14:28:50.377Z,9.79
2018-12-03T14:30:50.397Z,9.79
2018-12-03T14:32:50.356Z,9.78
2018-12-03T14:34:50.548Z,9.77
2018-12-03T14:36:50.687Z,9.76
2018-12-03T14:38:50.669Z,9.76
2018-12-03T14:40:50.594Z,9.73
2018-12-03T14:42:49.713Z,9.72
2018-12-03T14:44:50.676Z,9.71
2018-12-03T14:46:50.048Z,9.69
2018-12-03T14:48:50.001Z,9.68
2018-12-03T14:50:49.945Z,9.67
2018-12-03T14:52:49.873Z,9.67
2018-12-03T14:54:49.859Z,9.65
2018-12-03T14:56:50.055Z,9.64
2018-12-03T14:58:50.004Z,9.63
2018-12-03T15:00:49.986Z,9.63
2018-12-03T15:02:50.003Z,9.60
2018-12-03T15:04:50.231Z,9.59
2018-12-03T15:06:50.346Z,9.57
2018-12-03T15:08:50.342Z,9.57
2018-12-03T15:10:50.291Z,9.55
2018-12-03T15:12:50.667Z,9.53
2018-12-03T15:14:50.544Z,9.53
2018-12-03T15:16:49.760Z,9.51
2018-12-03T15:18:49.757Z,9.50
2018-12-03T15:20:49.713Z,9.49
2018-12-03T15:22:49.776Z,9.46
2018-12-03T15:24:49.719Z,9.46
2018-12-03T15:26:50.006Z,9.47
2018-12-03T15:28:50.048Z,9.46
2018-12-03T15:30:50.009Z,9.45
2018-12-03T15:32:49.939Z,9.43
2018-12-03T15:34:50.163Z,9.42
2018-12-03T15:36:50.295Z,9.39
2018-12-03T15:38:50.254Z,9.37
2018-12-03T15:40:50.246Z,9.37
2018-12-03T15:42:50.247Z,9.34
2018-12-03T15:44:50.228Z,9.34
2018-12-03T15:46:50.381Z,9.32
2018-12-03T15:48:50.369Z,9.27
2018-12-03T15:50:50.333Z,9.25
2018-12-03T15:52:50.294Z,9.21
2018-12-03T15:54:50.395Z,9.21
2018-12-03T15:56:50.533Z,9.22
2018-12-03T15:58:50.495Z,9.22
2018-12-03T16:00:50.509Z,9.19
2018-12-03T16:02:50.426Z,9.18
2018-12-03T16:04:49.691Z,9.17
2018-12-03T16:06:49.836Z,9.16
2018-12-03T16:08:49.886Z,9.16
2018-12-03T16:10:49.891Z,9.17
2018-12-03T16:12:49.942Z,9.17
2018-12-03T16:14:49.920Z,9.17
2018-12-03T16:16:50.030Z,9.15
2018-12-03T16:18:49.936Z,9.15
2018-12-03T16:20:49.879Z,9.13
2018-12-03T16:22:49.974Z,9.13
2018-12-03T16:24:49.927Z,9.08
2018-12-03T16:26:50.077Z,9.05
2018-12-03T16:28:50.076Z,9.05
2018-12-03T16:30:50.053Z,9.05
2018-12-03T16:32:50.054Z,9.06
2018-12-03T16:34:50.342Z,9.05
2018-12-03T16:36:50.490Z,9.03
2018-12-03T16:38:50.420Z,9.03
2018-12-03T16:40:50.426Z,9.03
2018-12-03T16:42:50.423Z,9.03
2018-12-03T16:44:50.365Z,9.02
2018-12-03T16:46:50.604Z,9.02
2018-12-03T16:48:49.717Z,9.02
2018-12-03T16:50:49.691Z,9.04
2018-12-03T16:52:49.699Z,9.02
2018-12-03T16:54:50.673Z,9.02
2018-12-03T16:56:49.863Z,9.01
2018-12-03T16:58:49.943Z,9.00
2018-12-03T17:00:49.945Z,8.98
2018-12-03T17:02:49.945Z,8.97
2018-12-03T17:04:50.173Z,8.96
2018-12-03T17:06:50.361Z,8.96
2018-12-03T17:08:50.299Z,8.96
2018-12-03T17:10:50.337Z,8.97
2018-12-03T17:12:50.376Z,8.97
2018-12-03T17:14:50.383Z,8.96
2018-12-03T17:16:50.581Z,8.96
2018-12-03T17:18:50.629Z,8.96
2018-12-03T17:20:50.693Z,8.94
2018-12-03T17:22:50.672Z,8.94
2018-12-03T17:24:49.689Z,8.94
2018-12-03T17:26:49.844Z,8.94
2018-12-03T17:28:49.860Z,8.92
2018-12-03T17:30:49.937Z,8.92
2018-12-03T17:32:49.973Z,8.92
2018-12-03T17:34:50.252Z,8.93
2018-12-03T17:36:50.359Z,8.92
2018-12-03T17:38:50.256Z,8.92
2018-12-03T17:40:50.214Z,8.92
2018-12-03T17:42:50.136Z,8.93
2018-12-03T17:44:50.108Z,8.92
2018-12-03T17:46:50.413Z,8.92
2018-12-03T17:48:50.350Z,8.97
2018-12-03T17:50:50.321Z,8.96
2018-12-03T17:52:50.278Z,8.96
2018-12-03T17:54:50.231Z,8.92
2018-12-03T17:56:50.413Z,8.92
2018-12-03T17:58:50.450Z,8.94
2018-12-03T18:00:50.393Z,8.92
2018-12-03T18:02:50.479Z,8.90
2018-12-03T18:04:49.713Z,8.88
2018-12-03T18:06:50.004Z,8.87
2018-12-03T18:08:49.910Z,8.84
2018-12-03T18:10:49.883Z,8.83
2018-12-03T18:12:49.901Z,8.82
2018-12-03T18:14:49.908Z,8.82
2018-12-03T18:16:50.228Z,8.80
2018-12-03T18:18:50.150Z,8.80
2018-12-03T18:20:50.101Z,8.79
2018-12-03T18:22:50.075Z,8.78
2018-12-03T18:24:50.044Z,8.77
2018-12-03T18:26:50.264Z,8.77
2018-12-03T18:28:50.219Z,8.76
2018-12-03T18:30:50.137Z,8.75
2018-12-03T18:32:50.112Z,8.76
2018-12-03T18:34:50.386Z,8.76
2018-12-03T18:36:50.546Z,8.79
2018-12-03T18:38:50.517Z,8.80
2018-12-03T18:40:50.506Z,8.81
2018-12-03T18:42:50.412Z,8.81
2018-12-03T18:44:50.367Z,8.77
2018-12-03T18:46:50.623Z,8.76
2018-12-03T18:48:50.525Z,8.74
2018-12-03T18:50:50.576Z,8.74
2018-12-03T18:52:50.532Z,8.75
2018-12-03T18:54:50.494Z,8.75
2018-12-03T18:56:50.666Z,8.73
2018-12-03T18:58:50.605Z,8.72
2018-12-03T19:00:50.688Z,8.71
2018-12-03T19:02:50.626Z,8.72
2018-12-03T19:04:50.017Z,8.72
2018-12-03T19:06:50.129Z,8.72
2018-12-03T19:08:50.149Z,8.69
2018-12-03T19:10:50.129Z,8.68
2018-12-03T19:12:50.209Z,8.68
2018-12-03T19:14:50.201Z,8.68
2018-12-03T19:16:50.357Z,8.67
2018-12-03T19:18:50.363Z,8.65
2018-12-03T19:20:50.337Z,8.63
2018-12-03T19:22:50.336Z,8.62
2018-12-03T19:24:50.361Z,8.62
2018-12-03T19:26:50.570Z,8.62
2018-12-03T19:28:50.529Z,8.62
2018-12-03T19:30:50.598Z,8.62
2018-12-03T19:32:50.559Z,8.61
2018-12-03T19:34:49.916Z,8.61
2018-12-03T19:36:50.040Z,8.59
2018-12-03T19:38:49.994Z,8.58
2018-12-03T19:40:49.971Z,8.58
2018-12-03T19:42:49.983Z,8.58
2018-12-03T19:44:49.981Z,8.58
2018-12-03T19:46:50.149Z,8.57
2018-12-03T19:48:50.174Z,8.58
2018-12-03T19:50:50.128Z,8.58
2018-12-03T19:52:50.193Z,8.60
2018-12-03T19:54:50.284Z,8.60
2018-12-03T19:56:50.489Z,8.62
2018-12-03T19:58:50.451Z,8.66
2018-12-03T20:00:50.426Z,8.67
2018-12-03T20:02:50.362Z,8.69
2018-12-03T20:04:49.750Z,8.69
2018-12-03T20:06:50.203Z,8.72
2018-12-03T20:08:50.229Z,8.72
2018-12-03T20:10:50.303Z,8.77
2018-12-03T20:12:50.287Z,8.78
2018-12-03T20:14:50.260Z,8.78
2018-12-03T20:16:50.401Z,8.80
2018-12-03T20:18:50.413Z,8.81
2018-12-03T20:20:50.365Z,8.82
2018-12-03T20:22:50.430Z,8.81
2018-12-03T20:24:50.401Z,8.83
2018-12-03T20:26:50.495Z,8.84
2018-12-03T20:28:50.469Z,8.85
2018-12-03T20:30:50.491Z,8.85
2018-12-03T20:32:50.504Z,8.86
2018-12-03T20:34:49.846Z,8.86
2018-12-03T20:36:50.177Z,8.87
2018-12-03T20:38:50.178Z,8.87
2018-12-03T20:40:50.186Z,8.88
2018-12-03T20:42:50.603Z,8.87
2018-12-03T20:44:50.662Z,8.87
2018-12-03T20:46:49.984Z,8.89
2018-12-03T20:48:50.003Z,8.90
2018-12-03T20:50:49.995Z,8.92
2018-12-03T20:52:50.069Z,8.93
2018-12-03T20:54:50.073Z,8.93
2018-12-03T20:56:50.456Z,8.92
2018-12-03T20:58:50.480Z,8.92
2018-12-03T21:00:50.430Z,8.92
2018-12-03T21:02:50.424Z,8.89
2018-12-03T21:04:49.900Z,8.88
2018-12-03T21:06:50.112Z,8.87
2018-12-03T21:08:50.029Z,8.86
2018-12-03T21:10:50.052Z,8.83
2018-12-03T21:12:50.047Z,8.82
2018-12-03T21:14:50.007Z,8.81
2018-12-03T21:16:50.135Z,8.80
2018-12-03T21:18:50.103Z,8.78
2018-12-03T21:20:50.109Z,8.78
2018-12-03T21:22:50.109Z,8.78
2018-12-03T21:24:50.109Z,8.77
2018-12-03T21:26:50.336Z,8.76
2018-12-03T21:28:50.320Z,8.76
2018-12-03T21:30:50.387Z,8.75
2018-12-03T21:32:50.459Z,8.74
2018-12-03T21:34:49.721Z,8.73
2018-12-03T21:36:49.928Z,8.72
2018-12-03T21:38:49.916Z,8.71
2018-12-03T21:40:49.940Z,8.70
2018-12-03T21:42:49.856Z,8.70
2018-12-03T21:44:49.858Z,8.69
2018-12-03T21:46:50.113Z,8.69
2018-12-03T21:48:50.087Z,8.69
2018-12-03T21:50:50.000Z,8.68
2018-12-03T21:52:49.995Z,8.69
2018-12-03T21:54:49.948Z,8.68
2018-12-03T21:56:50.159Z,8.70
2018-12-03T21:58:50.127Z,8.72
2018-12-03T22:00:50.158Z,8.73
2018-12-03T22:02:50.144Z,8.75
2018-12-03T22:04:50.471Z,8.79
2018-12-03T22:06:50.606Z,8.80
2018-12-03T22:08:50.573Z,8.83
2018-12-03T22:10:50.545Z,8.86
2018-12-03T22:12:50.686Z,8.89
2018-12-03T22:14:50.674Z,8.95
2018-12-03T22:16:49.870Z,8.96
2018-12-03T22:18:49.903Z,8.99
2018-12-03T22:20:49.891Z,8.99
2018-12-03T22:22:49.915Z,8.97
2018-12-03T22:24:49.900Z,8.96
2018-12-03T22:26:50.292Z,8.96
2018-12-03T22:28:50.282Z,8.89
2018-12-03T22:30:50.216Z,8.86
2018-12-03T22:32:50.208Z,8.86
2018-12-03T22:34:50.382Z,8.82
2018-12-03T22:36:50.600Z,8.80
2018-12-03T22:38:49.730Z,8.77
2018-12-03T22:40:49.683Z,8.72
2018-12-03T22:42:49.715Z,8.71
2018-12-03T22:44:49.843Z,8.69
2018-12-03T22:46:50.013Z,8.68
2018-12-03T22:48:50.008Z,8.68
2018-12-03T22:50:49.989Z,8.67
2018-12-03T22:52:49.991Z,8.66
2018-12-03T22:54:49.950Z,8.65
2018-12-03T22:56:49.999Z,8.66
2018-12-03T22:58:49.961Z,8.65
2018-12-03T23:00:49.932Z,8.63
2018-12-03T23:02:49.901Z,8.67
2018-12-03T23:04:50.343Z,8.68
2018-12-03T23:06:50.491Z,8.68
2018-12-03T23:08:50.454Z,8.66
2018-12-03T23:10:50.503Z,8.64
2018-12-03T23:12:50.511Z,8.59
2018-12-03T23:14:50.518Z,8.59
2018-12-03T23:16:49.683Z,8.56
2018-12-03T23:18:50.664Z,8.54
2018-12-03T23:20:49.732Z,8.53
2018-12-03T23:22:49.923Z,8.50
2018-12-03T23:24:49.920Z,8.51
2018-12-03T23:26:50.045Z,8.46
2018-12-03T23:28:50.064Z,8.45
2018-12-03T23:30:50.139Z,8.44
2018-12-03T23:32:50.112Z,8.44
2018-12-03T23:34:50.364Z,8.44
2018-12-03T23:36:50.568Z,8.42
2018-12-03T23:38:50.529Z,8.43
2018-12-03T23:40:50.605Z,8.40
2018-12-03T23:42:49.690Z,8.37
2018-12-03T23:44:49.703Z,8.35
2018-12-03T23:46:49.978Z,8.33
2018-12-03T23:48:49.930Z,8.29
2018-12-03T23:50:49.967Z,8.29
2018-12-03T23:52:50.011Z,8.28
2018-12-03T23:54:50.014Z,8.28
2018-12-03T23:56:50.234Z,8.26
2018-12-03T23:58:50.210Z,8.19
